sensor_id;sensor_type;location;lat;lon;timestamp;P1;durP1;ratioP1;P2;durP2;ratioP2
19278;SDS011;9773;47.062;15.446;2023-03-08T00:00:38;16.63;;;10.33;;
19278;SDS011;9773;47.062;15.446;2023-03-08T00:03:04;17.17;;;10.63;;
19278;SDS011;9773;47.062;15.446;2023-03-08T00:05:31;17.37;;;10.40;;
19278;SDS011;9773;47.062;15.446;2023-03-08T00:07:57;15.67;;;9.80;;
19278;SDS011;9773;47.062;15.446;2023-03-08T00:10:22;17.37;;;9.47;;
19278;SDS011;9773;47.062;15.446;2023-03-08T00:12:48;17.17;;;10.73;;
19278;SDS011;9773;47.062;15.446;2023-03-08T00:15:14;14.63;;;9.70;;
19278;SDS011;9773;47.062;15.446;2023-03-08T00:17:40;15.67;;;9.97;;
19278;SDS011;9773;47.062;15.446;2023-03-08T00:20:06;16.67;;;10.23;;
19278;SDS011;9773;47.062;15.446;2023-03-08T00:22:37;16.30;;;10.10;;
19278;SDS011;9773;47.062;15.446;2023-03-08T00:25:05;15.53;;;10.10;;
19278;SDS011;9773;47.062;15.446;2023-03-08T00:27:33;15.17;;;10.03;;
19278;SDS011;9773;47.062;15.446;2023-03-08T00:29:59;13.23;;;9.07;;
19278;SDS011;9773;47.062;15.446;2023-03-08T00:32:25;17.93;;;10.57;;
19278;SDS011;9773;47.062;15.446;2023-03-08T00:34:53;14.90;;;9.37;;
19278;SDS011;9773;47.062;15.446;2023-03-08T00:37:19;15.80;;;9.20;;
19278;SDS011;9773;47.062;15.446;2023-03-08T00:39:49;15.70;;;9.77;;
19278;SDS011;9773;47.062;15.446;2023-03-08T00:42:18;13.87;;;8.93;;
19278;SDS011;9773;47.062;15.446;2023-03-08T00:44:47;14.33;;;9.93;;
19278;SDS011;9773;47.062;15.446;2023-03-08T00:47:13;14.27;;;9.23;;
19278;SDS011;9773;47.062;15.446;2023-03-08T00:49:39;12.43;;;8.43;;
19278;SDS011;9773;47.062;15.446;2023-03-08T00:52:05;13.20;;;8.60;;
19278;SDS011;9773;47.062;15.446;2023-03-08T00:54:31;12.40;;;8.83;;
19278;SDS011;9773;47.062;15.446;2023-03-08T00:56:57;15.33;;;9.20;;
19278;SDS011;9773;47.062;15.446;2023-03-08T00:59:23;14.60;;;9.97;;
19278;SDS011;9773;47.062;15.446;2023-03-08T01:01:49;13.27;;;8.93;;
19278;SDS011;9773;47.062;15.446;2023-03-08T01:04:14;15.67;;;9.67;;
19278;SDS011;9773;47.062;15.446;2023-03-08T01:06:40;16.73;;;10.00;;
19278;SDS011;9773;47.062;15.446;2023-03-08T01:09:07;17.70;;;9.80;;
19278;SDS011;9773;47.062;15.446;2023-03-08T01:11:34;16.43;;;10.20;;
19278;SDS011;9773;47.062;15.446;2023-03-08T01:14:01;15.90;;;9.60;;
19278;SDS011;9773;47.062;15.446;2023-03-08T01:16:29;16.03;;;9.53;;
19278;SDS011;9773;47.062;15.446;2023-03-08T01:18:56;15.53;;;9.63;;
19278;SDS011;9773;47.062;15.446;2023-03-08T01:21:23;18.07;;;10.03;;
19278;SDS011;9773;47.062;15.446;2023-03-08T01:23:50;17.00;;;10.30;;
19278;SDS011;9773;47.062;15.446;2023-03-08T01:26:17;16.87;;;10.20;;
19278;SDS011;9773;47.062;15.446;2023-03-08T01:28:45;13.27;;;9.70;;
19278;SDS011;9773;47.062;15.446;2023-03-08T01:31:12;16.10;;;10.07;;
19278;SDS011;9773;47.062;15.446;2023-03-08T01:33:40;18.67;;;11.27;;
19278;SDS011;9773;47.062;15.446;2023-03-08T01:36:08;25.60;;;13.33;;
19278;SDS011;9773;47.062;15.446;2023-03-08T01:38:36;23.27;;;12.97;;
19278;SDS011;9773;47.062;15.446;2023-03-08T01:41:02;22.97;;;12.67;;
19278;SDS011;9773;47.062;15.446;2023-03-08T01:43:30;19.70;;;12.67;;
19278;SDS011;9773;47.062;15.446;2023-03-08T01:48:46;21.67;;;12.33;;
19278;SDS011;9773;47.062;15.446;2023-03-08T01:51:14;24.00;;;12.63;;
19278;SDS011;9773;47.062;15.446;2023-03-08T01:53:44;24.87;;;12.77;;
19278;SDS011;9773;47.062;15.446;2023-03-08T01:56:11;23.87;;;13.10;;
19278;SDS011;9773;47.062;15.446;2023-03-08T01:58:39;23.77;;;14.07;;
19278;SDS011;9773;47.062;15.446;2023-03-08T02:01:07;22.77;;;13.43;;
19278;SDS011;9773;47.062;15.446;2023-03-08T02:03:33;25.07;;;13.07;;
19278;SDS011;9773;47.062;15.446;2023-03-08T02:05:59;28.43;;;14.10;;
19278;SDS011;9773;47.062;15.446;2023-03-08T02:08:25;28.00;;;13.97;;
19278;SDS011;9773;47.062;15.446;2023-03-08T02:10:51;23.60;;;13.77;;
19278;SDS011;9773;47.062;15.446;2023-03-08T02:13:19;25.47;;;14.43;;
19278;SDS011;9773;47.062;15.446;2023-03-08T02:15:45;25.73;;;14.03;;
19278;SDS011;9773;47.062;15.446;2023-03-08T02:18:11;22.83;;;13.40;;
19278;SDS011;9773;47.062;15.446;2023-03-08T02:20:38;24.00;;;13.90;;
19278;SDS011;9773;47.062;15.446;2023-03-08T02:23:08;24.60;;;14.40;;
19278;SDS011;9773;47.062;15.446;2023-03-08T02:25:39;22.57;;;13.27;;
19278;SDS011;9773;47.062;15.446;2023-03-08T02:28:05;26.47;;;13.83;;
19278;SDS011;9773;47.062;15.446;2023-03-08T02:30:34;27.03;;;14.30;;
19278;SDS011;9773;47.062;15.446;2023-03-08T02:33:01;23.40;;;13.97;;
19278;SDS011;9773;47.062;15.446;2023-03-08T02:35:28;23.30;;;12.63;;
19278;SDS011;9773;47.062;15.446;2023-03-08T02:37:54;24.10;;;14.30;;
19278;SDS011;9773;47.062;15.446;2023-03-08T02:40:20;22.03;;;13.27;;
19278;SDS011;9773;47.062;15.446;2023-03-08T02:42:46;22.50;;;13.30;;
19278;SDS011;9773;47.062;15.446;2023-03-08T02:45:11;24.37;;;14.03;;
19278;SDS011;9773;47.062;15.446;2023-03-08T02:47:37;22.07;;;13.27;;
19278;SDS011;9773;47.062;15.446;2023-03-08T02:50:04;25.30;;;13.37;;
19278;SDS011;9773;47.062;15.446;2023-03-08T02:52:30;21.97;;;13.43;;
19278;SDS011;9773;47.062;15.446;2023-03-08T02:54:56;22.43;;;13.70;;
19278;SDS011;9773;47.062;15.446;2023-03-08T02:57:21;22.93;;;13.23;;
19278;SDS011;9773;47.062;15.446;2023-03-08T02:59:47;24.13;;;14.07;;
19278;SDS011;9773;47.062;15.446;2023-03-08T03:02:13;22.17;;;13.80;;
19278;SDS011;9773;47.062;15.446;2023-03-08T03:04:38;24.10;;;13.43;;
19278;SDS011;9773;47.062;15.446;2023-03-08T03:07:04;24.03;;;14.13;;
19278;SDS011;9773;47.062;15.446;2023-03-08T03:09:30;23.00;;;14.13;;
19278;SDS011;9773;47.062;15.446;2023-03-08T03:11:56;21.10;;;13.43;;
19278;SDS011;9773;47.062;15.446;2023-03-08T03:14:21;23.53;;;13.00;;
19278;SDS011;9773;47.062;15.446;2023-03-08T03:16:47;22.93;;;13.67;;
19278;SDS011;9773;47.062;15.446;2023-03-08T03:19:13;21.67;;;13.57;;
19278;SDS011;9773;47.062;15.446;2023-03-08T03:21:39;22.63;;;13.27;;
19278;SDS011;9773;47.062;15.446;2023-03-08T03:24:05;21.17;;;12.23;;
19278;SDS011;9773;47.062;15.446;2023-03-08T03:26:31;22.33;;;14.00;;
19278;SDS011;9773;47.062;15.446;2023-03-08T03:28:57;23.87;;;13.73;;
19278;SDS011;9773;47.062;15.446;2023-03-08T03:31:24;24.03;;;12.83;;
19278;SDS011;9773;47.062;15.446;2023-03-08T03:33:51;25.33;;;14.17;;
19278;SDS011;9773;47.062;15.446;2023-03-08T03:36:18;24.40;;;13.67;;
19278;SDS011;9773;47.062;15.446;2023-03-08T03:38:45;24.17;;;13.47;;
19278;SDS011;9773;47.062;15.446;2023-03-08T03:41:13;22.83;;;13.33;;
19278;SDS011;9773;47.062;15.446;2023-03-08T03:43:41;19.20;;;13.10;;
19278;SDS011;9773;47.062;15.446;2023-03-08T03:46:08;23.93;;;12.67;;
19278;SDS011;9773;47.062;15.446;2023-03-08T03:48:36;23.03;;;13.43;;
19278;SDS011;9773;47.062;15.446;2023-03-08T03:51:04;20.60;;;12.80;;
19278;SDS011;9773;47.062;15.446;2023-03-08T03:53:38;21.67;;;12.17;;
19278;SDS011;9773;47.062;15.446;2023-03-08T03:56:05;22.23;;;12.97;;
19278;SDS011;9773;47.062;15.446;2023-03-08T03:58:52;18.90;;;12.13;;
19278;SDS011;9773;47.062;15.446;2023-03-08T04:01:19;20.03;;;12.40;;
19278;SDS011;9773;47.062;15.446;2023-03-08T04:03:48;24.00;;;12.90;;
19278;SDS011;9773;47.062;15.446;2023-03-08T04:08:42;22.17;;;12.17;;
19278;SDS011;9773;47.062;15.446;2023-03-08T04:11:09;21.90;;;13.07;;
19278;SDS011;9773;47.062;15.446;2023-03-08T04:13:37;22.63;;;13.27;;
19278;SDS011;9773;47.062;15.446;2023-03-08T04:16:12;20.83;;;12.77;;
19278;SDS011;9773;47.062;15.446;2023-03-08T04:18:40;20.47;;;11.73;;
19278;SDS011;9773;47.062;15.446;2023-03-08T04:21:06;21.80;;;12.40;;
19278;SDS011;9773;47.062;15.446;2023-03-08T04:23:32;19.53;;;11.43;;
19278;SDS011;9773;47.062;15.446;2023-03-08T04:25:58;18.63;;;12.80;;
19278;SDS011;9773;47.062;15.446;2023-03-08T04:28:24;19.00;;;12.33;;
19278;SDS011;9773;47.062;15.446;2023-03-08T04:30:50;17.77;;;11.43;;
19278;SDS011;9773;47.062;15.446;2023-03-08T04:33:16;21.00;;;12.23;;
19278;SDS011;9773;47.062;15.446;2023-03-08T04:35:41;21.47;;;12.53;;
19278;SDS011;9773;47.062;15.446;2023-03-08T04:38:07;18.37;;;11.13;;
19278;SDS011;9773;47.062;15.446;2023-03-08T04:40:33;20.47;;;11.90;;
19278;SDS011;9773;47.062;15.446;2023-03-08T04:43:18;24.07;;;12.80;;
19278;SDS011;9773;47.062;15.446;2023-03-08T04:45:44;24.87;;;12.83;;
19278;SDS011;9773;47.062;15.446;2023-03-08T04:48:10;23.60;;;13.13;;
19278;SDS011;9773;47.062;15.446;2023-03-08T04:50:36;24.83;;;12.90;;
19278;SDS011;9773;47.062;15.446;2023-03-08T04:53:03;21.80;;;13.10;;
19278;SDS011;9773;47.062;15.446;2023-03-08T04:55:29;21.10;;;12.40;;
19278;SDS011;9773;47.062;15.446;2023-03-08T04:57:54;22.70;;;12.37;;
19278;SDS011;9773;47.062;15.446;2023-03-08T05:00:20;21.83;;;12.87;;
19278;SDS011;9773;47.062;15.446;2023-03-08T05:02:46;21.50;;;12.00;;
19278;SDS011;9773;47.062;15.446;2023-03-08T05:05:12;20.77;;;12.03;;
19278;SDS011;9773;47.062;15.446;2023-03-08T05:07:38;21.07;;;12.43;;
19278;SDS011;9773;47.062;15.446;2023-03-08T05:10:04;17.80;;;11.53;;
19278;SDS011;9773;47.062;15.446;2023-03-08T05:12:30;19.33;;;10.77;;
19278;SDS011;9773;47.062;15.446;2023-03-08T05:14:55;17.37;;;11.40;;
19278;SDS011;9773;47.062;15.446;2023-03-08T05:17:21;19.20;;;11.40;;
19278;SDS011;9773;47.062;15.446;2023-03-08T05:19:47;18.87;;;12.00;;
19278;SDS011;9773;47.062;15.446;2023-03-08T05:22:12;18.93;;;11.17;;
19278;SDS011;9773;47.062;15.446;2023-03-08T05:24:39;19.53;;;11.83;;
19278;SDS011;9773;47.062;15.446;2023-03-08T05:27:05;17.93;;;11.63;;
19278;SDS011;9773;47.062;15.446;2023-03-08T05:29:32;20.27;;;11.33;;
19278;SDS011;9773;47.062;15.446;2023-03-08T05:31:59;17.83;;;11.83;;
19278;SDS011;9773;47.062;15.446;2023-03-08T05:34:26;19.23;;;11.10;;
19278;SDS011;9773;47.062;15.446;2023-03-08T05:36:53;18.50;;;11.00;;
19278;SDS011;9773;47.062;15.446;2023-03-08T05:39:19;21.20;;;11.40;;
19278;SDS011;9773;47.062;15.446;2023-03-08T05:41:44;20.60;;;11.77;;
19278;SDS011;9773;47.062;15.446;2023-03-08T05:44:10;19.47;;;11.77;;
19278;SDS011;9773;47.062;15.446;2023-03-08T05:46:36;18.43;;;10.40;;
19278;SDS011;9773;47.062;15.446;2023-03-08T05:49:03;19.37;;;10.23;;
19278;SDS011;9773;47.062;15.446;2023-03-08T05:51:29;14.90;;;10.00;;
19278;SDS011;9773;47.062;15.446;2023-03-08T05:53:55;16.13;;;9.87;;
19278;SDS011;9773;47.062;15.446;2023-03-08T05:56:21;14.03;;;9.07;;
19278;SDS011;9773;47.062;15.446;2023-03-08T05:58:48;15.90;;;9.43;;
19278;SDS011;9773;47.062;15.446;2023-03-08T06:01:17;17.70;;;11.03;;
19278;SDS011;9773;47.062;15.446;2023-03-08T06:03:47;15.90;;;10.13;;
19278;SDS011;9773;47.062;15.446;2023-03-08T06:06:15;18.33;;;10.67;;
19278;SDS011;9773;47.062;15.446;2023-03-08T06:08:41;17.37;;;10.50;;
19278;SDS011;9773;47.062;15.446;2023-03-08T06:11:07;15.87;;;10.37;;
19278;SDS011;9773;47.062;15.446;2023-03-08T06:13:33;15.57;;;10.00;;
19278;SDS011;9773;47.062;15.446;2023-03-08T06:16:00;19.77;;;11.40;;
19278;SDS011;9773;47.062;15.446;2023-03-08T06:18:26;17.50;;;10.33;;
19278;SDS011;9773;47.062;15.446;2023-03-08T06:20:59;15.30;;;10.43;;
19278;SDS011;9773;47.062;15.446;2023-03-08T06:23:30;20.50;;;10.33;;
19278;SDS011;9773;47.062;15.446;2023-03-08T06:25:57;19.23;;;11.40;;
19278;SDS011;9773;47.062;15.446;2023-03-08T06:28:24;15.83;;;10.03;;
19278;SDS011;9773;47.062;15.446;2023-03-08T06:30:51;16.37;;;10.50;;
19278;SDS011;9773;47.062;15.446;2023-03-08T06:33:18;16.00;;;11.03;;
19278;SDS011;9773;47.062;15.446;2023-03-08T06:38:45;20.93;;;11.57;;
19278;SDS011;9773;47.062;15.446;2023-03-08T06:41:12;24.13;;;13.20;;
19278;SDS011;9773;47.062;15.446;2023-03-08T06:43:38;26.00;;;13.43;;
19278;SDS011;9773;47.062;15.446;2023-03-08T06:46:05;20.83;;;12.43;;
19278;SDS011;9773;47.062;15.446;2023-03-08T06:48:32;23.90;;;13.03;;
19278;SDS011;9773;47.062;15.446;2023-03-08T06:50:58;23.07;;;12.83;;
19278;SDS011;9773;47.062;15.446;2023-03-08T06:53:24;17.73;;;11.43;;
19278;SDS011;9773;47.062;15.446;2023-03-08T06:55:51;20.67;;;11.70;;
19278;SDS011;9773;47.062;15.446;2023-03-08T06:58:17;21.73;;;11.77;;
19278;SDS011;9773;47.062;15.446;2023-03-08T07:00:43;19.90;;;11.50;;
19278;SDS011;9773;47.062;15.446;2023-03-08T07:03:09;32.23;;;12.93;;
19278;SDS011;9773;47.062;15.446;2023-03-08T07:05:38;25.70;;;12.63;;
19278;SDS011;9773;47.062;15.446;2023-03-08T07:08:04;24.57;;;12.97;;
19278;SDS011;9773;47.062;15.446;2023-03-08T07:10:31;20.97;;;13.17;;
19278;SDS011;9773;47.062;15.446;2023-03-08T07:12:57;23.20;;;13.10;;
19278;SDS011;9773;47.062;15.446;2023-03-08T07:15:23;22.00;;;12.47;;
19278;SDS011;9773;47.062;15.446;2023-03-08T07:17:50;24.23;;;12.33;;
19278;SDS011;9773;47.062;15.446;2023-03-08T07:20:20;20.33;;;12.47;;
19278;SDS011;9773;47.062;15.446;2023-03-08T07:22:46;19.77;;;12.77;;
19278;SDS011;9773;47.062;15.446;2023-03-08T07:25:16;20.43;;;12.67;;
19278;SDS011;9773;47.062;15.446;2023-03-08T07:27:43;20.47;;;12.87;;
19278;SDS011;9773;47.062;15.446;2023-03-08T07:30:10;19.10;;;13.23;;
19278;SDS011;9773;47.062;15.446;2023-03-08T07:32:38;18.90;;;12.27;;
19278;SDS011;9773;47.062;15.446;2023-03-08T07:35:07;22.53;;;12.63;;
19278;SDS011;9773;47.062;15.446;2023-03-08T07:37:34;20.93;;;12.27;;
19278;SDS011;9773;47.062;15.446;2023-03-08T07:40:00;18.43;;;12.60;;
19278;SDS011;9773;47.062;15.446;2023-03-08T07:42:26;19.00;;;11.13;;
19278;SDS011;9773;47.062;15.446;2023-03-08T07:44:52;18.77;;;11.77;;
19278;SDS011;9773;47.062;15.446;2023-03-08T07:47:18;19.80;;;12.13;;
19278;SDS011;9773;47.062;15.446;2023-03-08T07:49:44;19.77;;;12.60;;
19278;SDS011;9773;47.062;15.446;2023-03-08T07:52:09;18.07;;;12.33;;
19278;SDS011;9773;47.062;15.446;2023-03-08T07:54:35;21.13;;;12.10;;
19278;SDS011;9773;47.062;15.446;2023-03-08T07:57:01;19.27;;;11.43;;
19278;SDS011;9773;47.062;15.446;2023-03-08T07:59:27;16.83;;;10.90;;
19278;SDS011;9773;47.062;15.446;2023-03-08T08:01:52;16.70;;;10.57;;
19278;SDS011;9773;47.062;15.446;2023-03-08T08:04:18;18.87;;;10.87;;
19278;SDS011;9773;47.062;15.446;2023-03-08T08:06:46;16.27;;;10.93;;
19278;SDS011;9773;47.062;15.446;2023-03-08T08:09:11;17.47;;;10.40;;
19278;SDS011;9773;47.062;15.446;2023-03-08T08:11:38;17.47;;;10.53;;
19278;SDS011;9773;47.062;15.446;2023-03-08T08:14:05;14.83;;;10.27;;
19278;SDS011;9773;47.062;15.446;2023-03-08T08:16:32;16.70;;;11.03;;
19278;SDS011;9773;47.062;15.446;2023-03-08T08:18:58;13.93;;;9.73;;
19278;SDS011;9773;47.062;15.446;2023-03-08T08:21:23;15.60;;;9.53;;
19278;SDS011;9773;47.062;15.446;2023-03-08T08:23:49;17.27;;;10.50;;
19278;SDS011;9773;47.062;15.446;2023-03-08T08:26:16;16.17;;;10.37;;
19278;SDS011;9773;47.062;15.446;2023-03-08T08:28:44;17.13;;;10.87;;
19278;SDS011;9773;47.062;15.446;2023-03-08T08:31:13;14.20;;;10.10;;
19278;SDS011;9773;47.062;15.446;2023-03-08T08:33:41;16.33;;;10.37;;
19278;SDS011;9773;47.062;15.446;2023-03-08T08:36:08;15.53;;;9.57;;
19278;SDS011;9773;47.062;15.446;2023-03-08T08:38:38;15.20;;;9.50;;
19278;SDS011;9773;47.062;15.446;2023-03-08T08:41:05;13.77;;;9.03;;
19278;SDS011;9773;47.062;15.446;2023-03-08T08:43:32;18.43;;;10.37;;
19278;SDS011;9773;47.062;15.446;2023-03-08T08:45:59;21.57;;;9.43;;
19278;SDS011;9773;47.062;15.446;2023-03-08T08:48:26;17.00;;;9.90;;
19278;SDS011;9773;47.062;15.446;2023-03-08T08:50:52;14.47;;;9.43;;
19278;SDS011;9773;47.062;15.446;2023-03-08T08:53:20;16.57;;;9.73;;
19278;SDS011;9773;47.062;15.446;2023-03-08T08:55:46;13.77;;;9.10;;
19278;SDS011;9773;47.062;15.446;2023-03-08T08:58:12;13.70;;;8.63;;
19278;SDS011;9773;47.062;15.446;2023-03-08T09:00:38;15.60;;;9.07;;
19278;SDS011;9773;47.062;15.446;2023-03-08T09:03:05;13.97;;;9.73;;
19278;SDS011;9773;47.062;15.446;2023-03-08T09:05:31;14.10;;;9.43;;
19278;SDS011;9773;47.062;15.446;2023-03-08T09:07:58;14.30;;;9.03;;
19278;SDS011;9773;47.062;15.446;2023-03-08T09:10:28;14.50;;;8.83;;
19278;SDS011;9773;47.062;15.446;2023-03-08T09:12:57;15.47;;;9.53;;
19278;SDS011;9773;47.062;15.446;2023-03-08T09:15:23;13.20;;;9.20;;
19278;SDS011;9773;47.062;15.446;2023-03-08T09:17:49;15.33;;;9.00;;
19278;SDS011;9773;47.062;15.446;2023-03-08T09:20:15;12.50;;;8.93;;
19278;SDS011;9773;47.062;15.446;2023-03-08T09:22:42;16.27;;;10.60;;
19278;SDS011;9773;47.062;15.446;2023-03-08T09:25:08;16.17;;;9.80;;
19278;SDS011;9773;47.062;15.446;2023-03-08T09:27:35;12.60;;;9.03;;
19278;SDS011;9773;47.062;15.446;2023-03-08T09:30:04;16.73;;;10.30;;
19278;SDS011;9773;47.062;15.446;2023-03-08T09:32:33;14.13;;;10.93;;
19278;SDS011;9773;47.062;15.446;2023-03-08T09:35:00;15.10;;;9.90;;
19278;SDS011;9773;47.062;15.446;2023-03-08T09:37:27;15.27;;;10.37;;
19278;SDS011;9773;47.062;15.446;2023-03-08T09:39:53;17.03;;;10.33;;
19278;SDS011;9773;47.062;15.446;2023-03-08T09:45:38;13.70;;;10.27;;
19278;SDS011;9773;47.062;15.446;2023-03-08T09:53:03;14.20;;;9.47;;
19278;SDS011;9773;47.062;15.446;2023-03-08T09:55:31;14.53;;;9.50;;
19278;SDS011;9773;47.062;15.446;2023-03-08T10:00:51;18.27;;;10.53;;
19278;SDS011;9773;47.062;15.446;2023-03-08T10:06:15;18.13;;;10.03;;
19278;SDS011;9773;47.062;15.446;2023-03-08T10:14:23;15.50;;;9.70;;
19278;SDS011;9773;47.062;15.446;2023-03-08T10:16:52;15.10;;;9.00;;
19278;SDS011;9773;47.062;15.446;2023-03-08T10:19:32;13.60;;;9.57;;
19278;SDS011;9773;47.062;15.446;2023-03-08T10:22:07;14.23;;;10.03;;
19278;SDS011;9773;47.062;15.446;2023-03-08T10:24:44;13.03;;;9.57;;
19278;SDS011;9773;47.062;15.446;2023-03-08T10:27:24;14.20;;;10.40;;
19278;SDS011;9773;47.062;15.446;2023-03-08T10:29:56;16.03;;;10.60;;
19278;SDS011;9773;47.062;15.446;2023-03-08T10:32:24;15.07;;;9.43;;
19278;SDS011;9773;47.062;15.446;2023-03-08T10:34:51;12.87;;;9.57;;
19278;SDS011;9773;47.062;15.446;2023-03-08T10:37:19;17.07;;;9.70;;
19278;SDS011;9773;47.062;15.446;2023-03-08T10:39:50;14.40;;;9.27;;
19278;SDS011;9773;47.062;15.446;2023-03-08T10:42:20;14.30;;;9.70;;
19278;SDS011;9773;47.062;15.446;2023-03-08T10:44:54;14.80;;;10.00;;
19278;SDS011;9773;47.062;15.446;2023-03-08T10:47:24;16.93;;;9.50;;
19278;SDS011;9773;47.062;15.446;2023-03-08T10:50:04;15.07;;;9.20;;
19278;SDS011;9773;47.062;15.446;2023-03-08T10:52:33;10.57;;;8.47;;
19278;SDS011;9773;47.062;15.446;2023-03-08T10:55:21;19.07;;;10.30;;
19278;SDS011;9773;47.062;15.446;2023-03-08T10:57:50;12.30;;;9.53;;
19278;SDS011;9773;47.062;15.446;2023-03-08T11:00:38;12.73;;;9.27;;
19278;SDS011;9773;47.062;15.446;2023-03-08T11:03:10;15.33;;;9.50;;
19278;SDS011;9773;47.062;15.446;2023-03-08T11:05:38;14.87;;;8.83;;
19278;SDS011;9773;47.062;15.446;2023-03-08T11:08:19;12.93;;;9.20;;
19278;SDS011;9773;47.062;15.446;2023-03-08T11:13:39;12.53;;;9.40;;
19278;SDS011;9773;47.062;15.446;2023-03-08T11:18:57;14.97;;;9.87;;
19278;SDS011;9773;47.062;15.446;2023-03-08T11:24:51;13.47;;;9.47;;
19278;SDS011;9773;47.062;15.446;2023-03-08T11:27:34;9.77;;;8.73;;
19278;SDS011;9773;47.062;15.446;2023-03-08T11:38:47;14.20;;;8.90;;
19278;SDS011;9773;47.062;15.446;2023-03-08T11:44:54;13.37;;;8.73;;
19278;SDS011;9773;47.062;15.446;2023-03-08T11:47:40;9.87;;;8.30;;
19278;SDS011;9773;47.062;15.446;2023-03-08T11:50:29;13.53;;;8.40;;
19278;SDS011;9773;47.062;15.446;2023-03-08T11:55:56;12.47;;;9.13;;
19278;SDS011;9773;47.062;15.446;2023-03-08T11:58:45;11.70;;;8.40;;
19278;SDS011;9773;47.062;15.446;2023-03-08T12:01:20;12.57;;;7.80;;
19278;SDS011;9773;47.062;15.446;2023-03-08T12:03:53;9.03;;;7.43;;
19278;SDS011;9773;47.062;15.446;2023-03-08T12:06:22;10.43;;;8.37;;
19278;SDS011;9773;47.062;15.446;2023-03-08T12:08:58;12.60;;;8.67;;
19278;SDS011;9773;47.062;15.446;2023-03-08T12:12:05;10.17;;;8.20;;
19278;SDS011;9773;47.062;15.446;2023-03-08T12:17:06;9.30;;;7.30;;
19278;SDS011;9773;47.062;15.446;2023-03-08T12:22:11;10.40;;;7.93;;
19278;SDS011;9773;47.062;15.446;2023-03-08T12:25:23;10.87;;;7.93;;
19278;SDS011;9773;47.062;15.446;2023-03-08T12:28:04;11.07;;;8.30;;
19278;SDS011;9773;47.062;15.446;2023-03-08T12:33:20;9.57;;;7.67;;
19278;SDS011;9773;47.062;15.446;2023-03-08T12:35:51;10.87;;;7.43;;
19278;SDS011;9773;47.062;15.446;2023-03-08T12:40:50;9.90;;;7.80;;
19278;SDS011;9773;47.062;15.446;2023-03-08T12:45:47;12.43;;;8.03;;
19278;SDS011;9773;47.062;15.446;2023-03-08T12:53:43;10.50;;;7.63;;
19278;SDS011;9773;47.062;15.446;2023-03-08T12:59:23;13.97;;;8.17;;
19278;SDS011;9773;47.062;15.446;2023-03-08T13:19:57;10.00;;;7.83;;
19278;SDS011;9773;47.062;15.446;2023-03-08T13:28:13;9.47;;;7.50;;
19278;SDS011;9773;47.062;15.446;2023-03-08T13:30:57;9.70;;;7.83;;
19278;SDS011;9773;47.062;15.446;2023-03-08T13:33:26;11.67;;;7.80;;
19278;SDS011;9773;47.062;15.446;2023-03-08T13:36:03;9.47;;;7.57;;
19278;SDS011;9773;47.062;15.446;2023-03-08T13:38:32;10.17;;;7.60;;
19278;SDS011;9773;47.062;15.446;2023-03-08T13:41:00;11.03;;;7.10;;
19278;SDS011;9773;47.062;15.446;2023-03-08T13:43:28;9.40;;;7.40;;
19278;SDS011;9773;47.062;15.446;2023-03-08T13:45:57;8.53;;;6.97;;
19278;SDS011;9773;47.062;15.446;2023-03-08T13:48:26;9.63;;;7.13;;
19278;SDS011;9773;47.062;15.446;2023-03-08T13:50:55;9.60;;;7.90;;
19278;SDS011;9773;47.062;15.446;2023-03-08T13:53:26;9.03;;;7.83;;
19278;SDS011;9773;47.062;15.446;2023-03-08T13:56:00;10.53;;;7.30;;
19278;SDS011;9773;47.062;15.446;2023-03-08T13:58:34;9.33;;;6.77;;
19278;SDS011;9773;47.062;15.446;2023-03-08T14:01:13;11.13;;;7.60;;
19278;SDS011;9773;47.062;15.446;2023-03-08T14:03:41;7.77;;;6.63;;
19278;SDS011;9773;47.062;15.446;2023-03-08T14:08:48;9.10;;;6.47;;
19278;SDS011;9773;47.062;15.446;2023-03-08T14:11:17;7.43;;;6.33;;
19278;SDS011;9773;47.062;15.446;2023-03-08T14:13:49;11.47;;;6.57;;
19278;SDS011;9773;47.062;15.446;2023-03-08T14:16:25;9.87;;;6.50;;
19278;SDS011;9773;47.062;15.446;2023-03-08T14:18:57;12.47;;;7.07;;
19278;SDS011;9773;47.062;15.446;2023-03-08T14:21:28;6.97;;;6.03;;
19278;SDS011;9773;47.062;15.446;2023-03-08T14:23:55;5.97;;;5.37;;
19278;SDS011;9773;47.062;15.446;2023-03-08T14:29:27;7.93;;;5.53;;
19278;SDS011;9773;47.062;15.446;2023-03-08T14:31:56;6.27;;;5.67;;
19278;SDS011;9773;47.062;15.446;2023-03-08T14:34:28;6.47;;;5.17;;
19278;SDS011;9773;47.062;15.446;2023-03-08T14:36:59;5.97;;;5.37;;
19278;SDS011;9773;47.062;15.446;2023-03-08T14:39:39;5.47;;;4.83;;
19278;SDS011;9773;47.062;15.446;2023-03-08T14:42:17;7.27;;;4.80;;
19278;SDS011;9773;47.062;15.446;2023-03-08T14:44:51;6.37;;;4.80;;
19278;SDS011;9773;47.062;15.446;2023-03-08T14:47:26;6.60;;;4.13;;
19278;SDS011;9773;47.062;15.446;2023-03-08T14:52:33;5.10;;;4.60;;
19278;SDS011;9773;47.062;15.446;2023-03-08T14:55:01;6.13;;;3.87;;
19278;SDS011;9773;47.062;15.446;2023-03-08T14:57:28;4.07;;;3.53;;
19278;SDS011;9773;47.062;15.446;2023-03-08T15:00:03;6.00;;;3.33;;
19278;SDS011;9773;47.062;15.446;2023-03-08T15:02:38;3.60;;;3.30;;
19278;SDS011;9773;47.062;15.446;2023-03-08T15:05:04;3.53;;;3.07;;
19278;SDS011;9773;47.062;15.446;2023-03-08T15:07:33;3.30;;;3.03;;
19278;SDS011;9773;47.062;15.446;2023-03-08T15:10:00;4.63;;;3.20;;
19278;SDS011;9773;47.062;15.446;2023-03-08T15:12:28;4.37;;;3.60;;
19278;SDS011;9773;47.062;15.446;2023-03-08T15:14:54;4.80;;;3.40;;
19278;SDS011;9773;47.062;15.446;2023-03-08T15:17:20;4.27;;;3.43;;
19278;SDS011;9773;47.062;15.446;2023-03-08T15:19:46;7.23;;;2.90;;
19278;SDS011;9773;47.062;15.446;2023-03-08T15:22:12;2.93;;;2.70;;
19278;SDS011;9773;47.062;15.446;2023-03-08T15:24:39;4.60;;;3.03;;
19278;SDS011;9773;47.062;15.446;2023-03-08T15:27:05;4.20;;;3.10;;
19278;SDS011;9773;47.062;15.446;2023-03-08T15:29:31;3.73;;;3.20;;
19278;SDS011;9773;47.062;15.446;2023-03-08T15:31:58;3.87;;;3.40;;
19278;SDS011;9773;47.062;15.446;2023-03-08T15:34:24;5.97;;;2.63;;
19278;SDS011;9773;47.062;15.446;2023-03-08T15:36:51;3.70;;;3.13;;
19278;SDS011;9773;47.062;15.446;2023-03-08T15:39:18;2.50;;;2.30;;
19278;SDS011;9773;47.062;15.446;2023-03-08T15:41:45;3.20;;;2.80;;
19278;SDS011;9773;47.062;15.446;2023-03-08T15:44:11;4.43;;;2.43;;
19278;SDS011;9773;47.062;15.446;2023-03-08T15:46:37;3.60;;;2.80;;
19278;SDS011;9773;47.062;15.446;2023-03-08T15:49:04;3.20;;;2.90;;
19278;SDS011;9773;47.062;15.446;2023-03-08T15:51:31;2.93;;;2.60;;
19278;SDS011;9773;47.062;15.446;2023-03-08T15:53:59;3.10;;;2.90;;
19278;SDS011;9773;47.062;15.446;2023-03-08T15:56:25;4.50;;;2.70;;
19278;SDS011;9773;47.062;15.446;2023-03-08T15:58:51;2.80;;;2.60;;
19278;SDS011;9773;47.062;15.446;2023-03-08T16:01:17;2.70;;;2.50;;
19278;SDS011;9773;47.062;15.446;2023-03-08T16:03:43;3.63;;;2.70;;
19278;SDS011;9773;47.062;15.446;2023-03-08T16:06:10;4.03;;;3.00;;
19278;SDS011;9773;47.062;15.446;2023-03-08T16:08:38;5.27;;;2.70;;
19278;SDS011;9773;47.062;15.446;2023-03-08T16:11:08;5.60;;;3.43;;
19278;SDS011;9773;47.062;15.446;2023-03-08T16:13:35;4.40;;;2.83;;
19278;SDS011;9773;47.062;15.446;2023-03-08T16:16:01;4.97;;;3.23;;
19278;SDS011;9773;47.062;15.446;2023-03-08T16:18:28;5.07;;;3.03;;
19278;SDS011;9773;47.062;15.446;2023-03-08T16:20:55;13.23;;;8.57;;
19278;SDS011;9773;47.062;15.446;2023-03-08T16:23:22;4.30;;;3.90;;